Řízení letového provozu České republiky
Letiste: LKKV Aktualizace: 27.02.2017 11:06:08  UTC
 METAR LKKV 27.02. 11:00 ...
METAR LKKV 271100Z VRB06KT 9999 FEW033 10/02 Q1007 RMK REG QNH 1004=
 TAF LKKV 27.02. 05:00 ...
TAF LKKV 270500Z 2706/2812 19004KT 9999 BKN027      BECMG 2708/2710 22006KT CAVOK      BECMG 2800/2803 24010KT 9999 BKN030      TEMPO 2803/2812 6000 -RA BKN017=